PWSweather.com
Personal Weather Stations
Station Observations

ChardChardGB

Lat: 50.877408, Lon: -2.94964741

Elevation: 341

Station Type: WS3083

http://www.merriott-astro.co.uk/weather/index.htm

Latest ConditionsUpdated 5:40:09 PM GMT Sunday, Jan 19, 2020
Currently Today's Max Today's Min Today's Average
Temperature 37.0°F2.8°C 46.6°F8.1°C 30.7°F-0.7°C 37.2°F2.9°C
Dew Point 31.8°F-0.1°C 38.0°F3.3°C 26.8°F-2.9°C 31.6°F-0.2°C
Winds 0.6 mph ENE1.0 kmh ENE 5.3 mph -8.5 kmh - - 1.6 mph 2.6 kmh
Wind Gusts 0.7 mph1.1 kmh 7.6 mph12.2 kmh - -
Humidity 81% 90% 62% 81%
Pressure 30.94 in1047.7 mb 30.94 in1047.7 mb 30.65 in1037.9 mb -
Hour Temp Dew Point Humidity Winds Wind Gusts Pressure Precip Precip Rate Daily Precip Total
05:40 PM 37.0°F2.8°C 31.8°F-0.1°C 81% 0.6 mph ENE1.0 kmh ENE 0.7 mph1.1 kmh 30.94 in1047.7 mb 0.00 in0.0 mm 0.00 in0.0 mm 0.00 in0.0 mm
05:30 PM 37.4°F3.0°C 32.1°F0.1°C 81% 0.3 mph ENE0.5 kmh ENE 0.7 mph1.1 kmh 30.94 in1047.7 mb 0.00 in0.0 mm 0.00 in0.0 mm 0.00 in0.0 mm
05:20 PM 38.1°F3.4°C 32.8°F0.4°C 81% 0.3 mph NE0.5 kmh NE 0.7 mph1.1 kmh 30.94 in1047.7 mb 0.00 in0.0 mm 0.00 in0.0 mm 0.00 in0.0 mm
05:10 PM 38.8°F3.8°C 33.2°F0.7°C 80% 1.3 mph NE2.1 kmh NE 1.6 mph2.6 kmh 30.94 in1047.7 mb 0.00 in0.0 mm 0.00 in0.0 mm 0.00 in0.0 mm
05:00 PM 39.2°F4.0°C 33.6°F0.9°C 80% 0.7 mph NE1.1 kmh NE 1.6 mph2.6 kmh 30.94 in1047.7 mb 0.00 in0.0 mm 0.00 in0.0 mm 0.00 in0.0 mm
04:50 PM 39.4°F4.1°C 33.4°F0.8°C 79% 0.1 mph NNE0.2 kmh NNE 0.7 mph1.1 kmh 30.93 in1047.4 mb 0.00 in0.0 mm 0.00 in0.0 mm 0.00 in0.0 mm
04:40 PM 40.3°F4.6°C 34.0°F1.1°C 78% 0.3 mph NE0.5 kmh NE 0.7 mph1.1 kmh 30.93 in1047.4 mb 0.00 in0.0 mm 0.00 in0.0 mm 0.00 in0.0 mm
04:30 PM 41.0°F5.0°C 34.7°F1.5°C 78% 1.0 mph NE1.6 kmh NE 1.6 mph2.6 kmh 30.93 in1047.4 mb 0.00 in0.0 mm 0.00 in0.0 mm 0.00 in0.0 mm
04:20 PM 41.5°F5.3°C 34.9°F1.6°C 77% 1.5 mph NE2.4 kmh NE 3.1 mph5.0 kmh 30.92 in1047.1 mb 0.00 in0.0 mm 0.00 in0.0 mm 0.00 in0.0 mm
04:10 PM 41.9°F5.5°C 34.9°F1.6°C 76% 1.6 mph NE2.6 kmh NE 2.2 mph3.5 kmh 30.93 in1047.4 mb 0.00 in0.0 mm 0.00 in0.0 mm 0.00 in0.0 mm
04:00 PM 42.4°F5.8°C 34.8°F1.6°C 74% 2.0 mph NE3.2 kmh NE 3.1 mph5.0 kmh 30.93 in1047.4 mb 0.00 in0.0 mm 0.00 in0.0 mm 0.00 in0.0 mm
03:50 PM 43.0°F6.1°C 34.9°F1.6°C 73% 2.3 mph ENE3.7 kmh ENE 3.8 mph6.1 kmh 30.93 in1047.4 mb 0.00 in0.0 mm 0.00 in0.0 mm 0.00 in0.0 mm
03:40 PM 43.7°F6.5°C 35.6°F2.0°C 73% 3.1 mph NE5.0 kmh NE 3.8 mph6.1 kmh 30.93 in1047.4 mb 0.00 in0.0 mm 0.00 in0.0 mm 0.00 in0.0 mm
03:30 PM 44.1°F6.7°C 35.3°F1.8°C 71% 3.4 mph NE5.5 kmh NE 4.5 mph7.2 kmh 30.93 in1047.4 mb 0.00 in0.0 mm 0.00 in0.0 mm 0.00 in0.0 mm
03:20 PM 44.6°F7.0°C 35.8°F2.1°C 71% 3.9 mph NE6.3 kmh NE 5.4 mph8.7 kmh 30.92 in1047.1 mb 0.00 in0.0 mm 0.00 in0.0 mm 0.00 in0.0 mm
03:10 PM 44.4°F6.9°C 35.3°F1.8°C 70% 3.7 mph NE6.0 kmh NE 4.5 mph7.2 kmh 30.92 in1047.1 mb 0.00 in0.0 mm 0.00 in0.0 mm 0.00 in0.0 mm
03:00 PM 44.8°F7.1°C 34.9°F1.6°C 68% 4.2 mph NE6.8 kmh NE 5.4 mph8.7 kmh 30.92 in1047.1 mb 0.00 in0.0 mm 0.00 in0.0 mm 0.00 in0.0 mm
02:50 PM 45.5°F7.5°C 33.2°F0.7°C 62% 4.2 mph NE6.8 kmh NE 6.0 mph9.7 kmh 30.91 in1046.7 mb 0.00 in0.0 mm 0.00 in0.0 mm 0.00 in0.0 mm
02:40 PM 45.5°F7.5°C 33.2°F0.7°C 62% 4.9 mph NE7.9 kmh NE 7.6 mph12.2 kmh 30.91 in1046.7 mb 0.00 in0.0 mm 0.00 in0.0 mm 0.00 in0.0 mm
02:30 PM 46.4°F8.0°C 34.5°F1.4°C 63% 3.6 mph N5.8 kmh N 6.0 mph9.7 kmh 30.90 in1046.4 mb 0.00 in0.0 mm 0.00 in0.0 mm 0.00 in0.0 mm
02:20 PM 46.2°F7.9°C 34.7°F1.5°C 64% 3.7 mph N6.0 kmh N 4.5 mph7.2 kmh 30.90 in1046.4 mb 0.00 in0.0 mm 0.00 in0.0 mm 0.00 in0.0 mm
02:10 PM 45.9°F7.7°C 34.0°F1.1°C 63% 3.5 mph NE5.6 kmh NE 4.5 mph7.2 kmh 30.90 in1046.4 mb 0.00 in0.0 mm 0.00 in0.0 mm 0.00 in0.0 mm
02:00 PM 46.0°F7.8°C 33.8°F1.0°C 62% 4.0 mph NNE6.4 kmh NNE 5.4 mph8.7 kmh 30.89 in1046.1 mb 0.00 in0.0 mm 0.00 in0.0 mm 0.00 in0.0 mm
01:50 PM 45.9°F7.7°C 33.6°F0.9°C 62% 4.7 mph E7.6 kmh E 6.9 mph11.1 kmh 30.90 in1046.4 mb 0.00 in0.0 mm 0.00 in0.0 mm 0.00 in0.0 mm
01:40 PM 46.6°F8.1°C 34.7°F1.5°C 63% 3.6 mph NE5.8 kmh NE 4.5 mph7.2 kmh 30.91 in1046.7 mb 0.00 in0.0 mm 0.00 in0.0 mm 0.00 in0.0 mm
01:30 PM 46.4°F8.0°C 34.5°F1.4°C 63% 4.7 mph N7.6 kmh N 6.0 mph9.7 kmh 30.89 in1046.1 mb 0.00 in0.0 mm 0.00 in0.0 mm 0.00 in0.0 mm
01:20 PM 46.4°F8.0°C 34.5°F1.4°C 63% 4.2 mph NNE6.8 kmh NNE 6.0 mph9.7 kmh 30.90 in1046.4 mb 0.00 in0.0 mm 0.00 in0.0 mm 0.00 in0.0 mm
01:10 PM 46.4°F8.0°C 34.9°F1.6°C 64% 4.3 mph NNW6.9 kmh NNW 5.4 mph8.7 kmh 30.90 in1046.4 mb 0.00 in0.0 mm 0.00 in0.0 mm 0.00 in0.0 mm
01:00 PM 45.5°F7.5°C 34.4°F1.3°C 65% 4.3 mph NE6.9 kmh NE 5.4 mph8.7 kmh 30.89 in1046.1 mb 0.00 in0.0 mm 0.00 in0.0 mm 0.00 in0.0 mm
12:50 PM 45.9°F7.7°C 35.2°F1.8°C 66% 4.2 mph NE6.8 kmh NE 6.0 mph9.7 kmh 30.90 in1046.4 mb 0.00 in0.0 mm 0.00 in0.0 mm 0.00 in0.0 mm
12:40 PM 45.9°F7.7°C 35.2°F1.8°C 66% 3.7 mph N6.0 kmh N 5.4 mph8.7 kmh 30.91 in1046.7 mb 0.00 in0.0 mm 0.00 in0.0 mm 0.00 in0.0 mm
12:30 PM 45.1°F7.3°C 35.9°F2.2°C 70% 4.1 mph NNE6.6 kmh NNE 5.4 mph8.7 kmh 30.90 in1046.4 mb 0.00 in0.0 mm 0.00 in0.0 mm 0.00 in0.0 mm
12:20 PM 44.8°F7.1°C 36.7°F2.6°C 73% 4.0 mph NE6.4 kmh NE 6.9 mph11.1 kmh 30.90 in1046.4 mb 0.00 in0.0 mm 0.00 in0.0 mm 0.00 in0.0 mm
12:10 PM 43.7°F6.5°C 35.3°F1.8°C 72% 5.3 mph NE8.5 kmh NE 6.9 mph11.1 kmh 30.90 in1046.4 mb 0.00 in0.0 mm 0.00 in0.0 mm 0.00 in0.0 mm
12:00 PM 43.9°F6.6°C 36.1°F2.3°C 74% 4.7 mph NE7.6 kmh NE 6.9 mph11.1 kmh 30.90 in1046.4 mb 0.00 in0.0 mm 0.00 in0.0 mm 0.00 in0.0 mm
11:50 AM 43.3°F6.3°C 36.3°F2.4°C 76% 4.2 mph NE6.8 kmh NE 7.6 mph12.2 kmh 30.91 in1046.7 mb 0.00 in0.0 mm 0.00 in0.0 mm 0.00 in0.0 mm
11:40 AM 43.0°F6.1°C 37.2°F2.9°C 80% 4.0 mph NE6.4 kmh NE 6.0 mph9.7 kmh 30.90 in1046.4 mb 0.00 in0.0 mm 0.00 in0.0 mm 0.00 in0.0 mm
11:30 AM 42.3°F5.7°C 37.5°F3.1°C 83% 4.8 mph NNE7.7 kmh NNE 6.9 mph11.1 kmh 30.91 in1046.7 mb 0.00 in0.0 mm 0.00 in0.0 mm 0.00 in0.0 mm
11:20 AM 41.0°F5.0°C 38.0°F3.3°C 89% 4.7 mph ENE7.6 kmh ENE 6.0 mph9.7 kmh 30.91 in1046.7 mb 0.00 in0.0 mm 0.00 in0.0 mm 0.00 in0.0 mm
11:10 AM 39.6°F4.2°C 36.9°F2.7°C 90% 3.8 mph NE6.1 kmh NE 5.4 mph8.7 kmh 30.90 in1046.4 mb 0.00 in0.0 mm 0.00 in0.0 mm 0.00 in0.0 mm
11:00 AM 38.8°F3.8°C 36.2°F2.3°C 90% 3.7 mph ENE6.0 kmh ENE 5.4 mph8.7 kmh 30.91 in1046.7 mb 0.00 in0.0 mm 0.00 in0.0 mm 0.00 in0.0 mm
10:50 AM 38.5°F3.6°C 35.8°F2.1°C 90% 3.3 mph NE5.3 kmh NE 4.5 mph7.2 kmh 30.90 in1046.4 mb 0.00 in0.0 mm 0.00 in0.0 mm 0.00 in0.0 mm
10:40 AM 37.8°F3.2°C 35.1°F1.7°C 90% 2.1 mph NE3.4 kmh NE 3.1 mph5.0 kmh 30.89 in1046.1 mb 0.00 in0.0 mm 0.00 in0.0 mm 0.00 in0.0 mm
10:30 AM 37.4°F3.0°C 34.7°F1.5°C 90% 1.4 mph NE2.3 kmh NE 2.2 mph3.5 kmh 30.89 in1046.1 mb 0.00 in0.0 mm 0.00 in0.0 mm 0.00 in0.0 mm
10:20 AM 36.7°F2.6°C 34.0°F1.1°C 90% 1.5 mph NE2.4 kmh NE 2.2 mph3.5 kmh 30.88 in1045.7 mb 0.00 in0.0 mm 0.00 in0.0 mm 0.00 in0.0 mm
10:10 AM 35.8°F2.1°C 32.9°F0.5°C 89% 0.2 mph SE0.3 kmh SE 0.7 mph1.1 kmh 30.87 in1045.4 mb 0.00 in0.0 mm 0.00 in0.0 mm 0.00 in0.0 mm
10:00 AM 35.2°F1.8°C 32.3°F0.2°C 89% Calm Calm -- 30.87 in1045.4 mb 0.00 in0.0 mm 0.00 in0.0 mm 0.00 in0.0 mm
09:50 AM 34.9°F1.6°C 31.7°F-0.2°C 88% 0.6 mph NE1.0 kmh NE 1.6 mph2.6 kmh 30.88 in1045.7 mb 0.00 in0.0 mm 0.00 in0.0 mm 0.00 in0.0 mm
09:40 AM 34.3°F1.3°C 31.2°F-0.4°C 88% 1.0 mph NE1.6 kmh NE 1.6 mph2.6 kmh 30.87 in1045.4 mb 0.00 in0.0 mm 0.00 in0.0 mm 0.00 in0.0 mm
09:30 AM 33.3°F0.7°C 29.8°F-1.2°C 87% Calm Calm -- 30.87 in1045.4 mb 0.00 in0.0 mm 0.00 in0.0 mm 0.00 in0.0 mm
09:20 AM 32.2°F0.1°C 28.5°F-1.9°C 86% 0.1 mph NE0.2 kmh NE 0.7 mph1.1 kmh 30.87 in1045.4 mb 0.00 in0.0 mm 0.00 in0.0 mm 0.00 in0.0 mm
09:10 AM 31.3°F-0.4°C 27.6°F-2.4°C 86% Calm Calm -- 30.86 in1045.0 mb 0.00 in0.0 mm 0.00 in0.0 mm 0.00 in0.0 mm
09:00 AM 31.1°F-0.5°C 27.4°F-2.6°C 86% Calm Calm -- 30.86 in1045.0 mb 0.00 in0.0 mm 0.00 in0.0 mm 0.00 in0.0 mm
08:50 AM 31.1°F-0.5°C 27.4°F-2.6°C 86% 0.1 mph SE0.2 kmh SE 0.7 mph1.1 kmh 30.85 in1044.7 mb 0.00 in0.0 mm 0.00 in0.0 mm 0.00 in0.0 mm
08:40 AM 30.9°F-0.6°C 27.0°F-2.8°C 85% Calm Calm -- 30.85 in1044.7 mb 0.00 in0.0 mm 0.00 in0.0 mm 0.00 in0.0 mm
08:30 AM 30.9°F-0.6°C 27.0°F-2.8°C 85% Calm Calm -- 30.85 in1044.7 mb 0.00 in0.0 mm 0.00 in0.0 mm 0.00 in0.0 mm
08:20 AM 30.7°F-0.7°C 26.8°F-2.9°C 85% Calm Calm -- 30.83 in1044.0 mb 0.00 in0.0 mm 0.00 in0.0 mm 0.00 in0.0 mm
08:10 AM 31.3°F-0.4°C 27.3°F-2.6°C 85% Calm Calm -- 30.83 in1044.0 mb 0.00 in0.0 mm 0.00 in0.0 mm 0.00 in0.0 mm
08:00 AM 31.3°F-0.4°C 27.3°F-2.6°C 85% Calm Calm 0.7 mph1.1 kmh 30.82 in1043.7 mb 0.00 in0.0 mm 0.00 in0.0 mm 0.00 in0.0 mm
07:50 AM 31.3°F-0.4°C 27.3°F-2.6°C 85% 0.2 mph E0.3 kmh E 0.7 mph1.1 kmh 30.82 in1043.7 mb 0.00 in0.0 mm 0.00 in0.0 mm 0.00 in0.0 mm
07:40 AM 31.3°F-0.4°C 27.3°F-2.6°C 85% 0.2 mph SE0.3 kmh SE 0.7 mph1.1 kmh 30.82 in1043.7 mb 0.00 in0.0 mm 0.00 in0.0 mm 0.00 in0.0 mm
07:30 AM 31.8°F-0.1°C 27.8°F-2.3°C 85% Calm Calm -- 30.81 in1043.3 mb 0.00 in0.0 mm 0.00 in0.0 mm 0.00 in0.0 mm
07:20 AM 31.5°F-0.3°C 27.5°F-2.5°C 85% Calm Calm -- 30.81 in1043.3 mb 0.00 in0.0 mm 0.00 in0.0 mm 0.00 in0.0 mm
07:10 AM 31.6°F-0.2°C 27.7°F-2.4°C 85% Calm Calm -- 30.80 in1043.0 mb 0.00 in0.0 mm 0.00 in0.0 mm 0.00 in0.0 mm
07:00 AM 31.6°F-0.2°C 27.7°F-2.4°C 85% Calm Calm -- 30.79 in1042.7 mb 0.00 in0.0 mm 0.00 in0.0 mm 0.00 in0.0 mm
06:50 AM 31.5°F-0.3°C 27.5°F-2.5°C 85% Calm Calm -- 30.79 in1042.7 mb 0.00 in0.0 mm 0.00 in0.0 mm 0.00 in0.0 mm
06:40 AM 31.5°F-0.3°C 27.2°F-2.7°C 84% Calm Calm -- 30.79 in1042.7 mb 0.00 in0.0 mm 0.00 in0.0 mm 0.00 in0.0 mm
06:30 AM 31.6°F-0.2°C 27.4°F-2.6°C 84% Calm Calm -- 30.79 in1042.7 mb 0.00 in0.0 mm 0.00 in0.0 mm 0.00 in0.0 mm
06:20 AM 31.8°F-0.1°C 27.6°F-2.4°C 84% Calm Calm -- 30.77 in1042.0 mb 0.00 in0.0 mm 0.00 in0.0 mm 0.00 in0.0 mm
06:10 AM 31.8°F-0.1°C 27.6°F-2.4°C 84% Calm Calm -- 30.78 in1042.3 mb 0.00 in0.0 mm 0.00 in0.0 mm 0.00 in0.0 mm
06:00 AM 32.4°F0.2°C 28.1°F-2.2°C 84% 0.1 mph S0.2 kmh S 0.7 mph1.1 kmh 30.77 in1042.0 mb 0.00 in0.0 mm 0.00 in0.0 mm 0.00 in0.0 mm
05:50 AM 32.7°F0.4°C 28.1°F-2.2°C 83% 0.2 mph SE0.3 kmh SE 0.7 mph1.1 kmh 30.77 in1042.0 mb 0.00 in0.0 mm 0.00 in0.0 mm 0.00 in0.0 mm
05:40 AM 32.9°F0.5°C 28.3°F-2.1°C 83% 0.1 mph SW0.2 kmh SW 0.7 mph1.1 kmh 30.77 in1042.0 mb 0.00 in0.0 mm 0.00 in0.0 mm 0.00 in0.0 mm
05:30 AM 33.3°F0.7°C 28.7°F-1.8°C 83% Calm Calm -- 30.76 in1041.7 mb 0.00 in0.0 mm 0.00 in0.0 mm 0.00 in0.0 mm
05:20 AM 33.8°F1.0°C 29.2°F-1.6°C 83% 0.1 mph S0.2 kmh S 0.7 mph1.1 kmh 30.76 in1041.7 mb 0.00 in0.0 mm 0.00 in0.0 mm 0.00 in0.0 mm
05:10 AM 34.3°F1.3°C 29.7°F-1.3°C 83% 0.1 mph SE0.2 kmh SE 0.7 mph1.1 kmh 30.76 in1041.7 mb 0.00 in0.0 mm 0.00 in0.0 mm 0.00 in0.0 mm
05:00 AM 34.7°F1.5°C 30.1°F-1.1°C 83% 0.5 mph E0.8 kmh E 0.7 mph1.1 kmh 30.75 in1041.3 mb 0.00 in0.0 mm 0.00 in0.0 mm 0.00 in0.0 mm
04:50 AM 34.9°F1.6°C 30.3°F-0.9°C 83% 0.3 mph E0.5 kmh E 0.7 mph1.1 kmh 30.75 in1041.3 mb 0.00 in0.0 mm 0.00 in0.0 mm 0.00 in0.0 mm
04:40 AM 35.2°F1.8°C 30.6°F-0.8°C 83% 1.0 mph E1.6 kmh E 2.2 mph3.5 kmh 30.74 in1041.0 mb 0.00 in0.0 mm 0.00 in0.0 mm 0.00 in0.0 mm
04:30 AM 35.6°F2.0°C 31.0°F-0.6°C 83% 1.2 mph ENE1.9 kmh ENE 2.2 mph3.5 kmh 30.74 in1041.0 mb 0.00 in0.0 mm 0.00 in0.0 mm 0.00 in0.0 mm
04:20 AM 35.8°F2.1°C 31.1°F-0.5°C 83% 1.1 mph E1.8 kmh E 3.8 mph6.1 kmh 30.73 in1040.6 mb 0.00 in0.0 mm 0.00 in0.0 mm 0.00 in0.0 mm
04:10 AM 36.0°F2.2°C 31.3°F-0.4°C 83% 1.3 mph E2.1 kmh E 1.6 mph2.6 kmh 30.73 in1040.6 mb 0.00 in0.0 mm 0.00 in0.0 mm 0.00 in0.0 mm
04:00 AM 36.7°F2.6°C 32.3°F0.2°C 84% 2.4 mph NE3.9 kmh NE 3.1 mph5.0 kmh 30.73 in1040.6 mb 0.00 in0.0 mm 0.00 in0.0 mm 0.00 in0.0 mm
03:50 AM 36.5°F2.5°C 32.1°F0.1°C 84% 2.5 mph NE4.0 kmh NE 3.8 mph6.1 kmh 30.73 in1040.6 mb 0.00 in0.0 mm 0.00 in0.0 mm 0.00 in0.0 mm
03:40 AM 36.0°F2.2°C 31.6°F-0.2°C 84% 1.8 mph NE2.9 kmh NE 2.2 mph3.5 kmh 30.72 in1040.3 mb 0.00 in0.0 mm 0.00 in0.0 mm 0.00 in0.0 mm
03:30 AM 36.3°F2.4°C 32.3°F0.2°C 85% 2.9 mph NE4.7 kmh NE 3.8 mph6.1 kmh 30.72 in1040.3 mb 0.00 in0.0 mm 0.00 in0.0 mm 0.00 in0.0 mm
03:20 AM 35.8°F2.1°C 32.0°F0.0°C 86% 3.1 mph NE5.0 kmh NE 6.0 mph9.7 kmh 30.72 in1040.3 mb 0.00 in0.0 mm 0.00 in0.0 mm 0.00 in0.0 mm
03:10 AM 35.2°F1.8°C 31.5°F-0.3°C 86% 2.6 mph NE4.2 kmh NE 3.1 mph5.0 kmh 30.72 in1040.3 mb 0.00 in0.0 mm 0.00 in0.0 mm 0.00 in0.0 mm
03:00 AM 34.5°F1.4°C 30.8°F-0.7°C 86% 1.7 mph NE2.7 kmh NE 2.2 mph3.5 kmh 30.73 in1040.6 mb 0.00 in0.0 mm 0.00 in0.0 mm 0.00 in0.0 mm
02:50 AM 34.0°F1.1°C 30.2°F-1.0°C 86% 1.8 mph NE2.9 kmh NE 3.1 mph5.0 kmh 30.71 in1040.0 mb 0.00 in0.0 mm 0.00 in0.0 mm 0.00 in0.0 mm
02:40 AM 33.4°F0.8°C 29.7°F-1.3°C 86% 1.6 mph NE2.6 kmh NE 2.2 mph3.5 kmh 30.71 in1040.0 mb 0.00 in0.0 mm 0.00 in0.0 mm 0.00 in0.0 mm
02:30 AM 33.3°F0.7°C 29.5°F-1.4°C 86% 0.8 mph NE1.3 kmh NE 1.6 mph2.6 kmh 30.71 in1040.0 mb 0.00 in0.0 mm 0.00 in0.0 mm 0.00 in0.0 mm
02:20 AM 33.1°F0.6°C 29.4°F-1.4°C 86% 0.9 mph NE1.4 kmh NE 1.6 mph2.6 kmh 30.70 in1039.6 mb 0.00 in0.0 mm 0.00 in0.0 mm 0.00 in0.0 mm
02:10 AM 33.1°F0.6°C 29.4°F-1.4°C 86% 1.0 mph E1.6 kmh E 2.2 mph3.5 kmh 30.70 in1039.6 mb 0.00 in0.0 mm 0.00 in0.0 mm 0.00 in0.0 mm
02:00 AM 33.1°F0.6°C 29.4°F-1.4°C 86% 0.8 mph NE1.3 kmh NE 1.6 mph2.6 kmh 30.70 in1039.6 mb 0.00 in0.0 mm 0.00 in0.0 mm 0.00 in0.0 mm
01:50 AM 32.7°F0.4°C 29.0°F-1.7°C 86% 0.6 mph E1.0 kmh E 1.6 mph2.6 kmh 30.69 in1039.3 mb 0.00 in0.0 mm 0.00 in0.0 mm 0.00 in0.0 mm
01:40 AM 32.5°F0.3°C 28.8°F-1.8°C 86% 0.4 mph N0.6 kmh N 0.7 mph1.1 kmh 30.68 in1038.9 mb 0.00 in0.0 mm 0.00 in0.0 mm 0.00 in0.0 mm
01:30 AM 32.7°F0.4°C 29.0°F-1.7°C 86% 0.6 mph ENE1.0 kmh ENE 0.7 mph1.1 kmh 30.68 in1038.9 mb 0.00 in0.0 mm 0.00 in0.0 mm 0.00 in0.0 mm
01:20 AM 32.2°F0.1°C 28.5°F-1.9°C 86% Calm Calm -- 30.68 in1038.9 mb 0.00 in0.0 mm 0.00 in0.0 mm 0.00 in0.0 mm
01:10 AM 32.5°F0.3°C 28.8°F-1.8°C 86% 0.2 mph S0.3 kmh S 1.6 mph2.6 kmh 30.68 in1038.9 mb 0.00 in0.0 mm 0.00 in0.0 mm 0.00 in0.0 mm
01:00 AM 32.9°F0.5°C 29.2°F-1.6°C 86% 0.2 mph S0.3 kmh S 1.6 mph2.6 kmh 30.67 in1038.6 mb 0.00 in0.0 mm 0.00 in0.0 mm 0.00 in0.0 mm
12:50 AM 33.1°F0.6°C 29.4°F-1.4°C 86% 0.1 mph SE0.2 kmh SE 0.7 mph1.1 kmh 30.67 in1038.6 mb 0.00 in0.0 mm 0.00 in0.0 mm 0.00 in0.0 mm
12:40 AM 32.9°F0.5°C 29.2°F-1.6°C 86% Calm Calm 0.7 mph1.1 kmh 30.66 in1038.3 mb 0.00 in0.0 mm 0.00 in0.0 mm 0.00 in0.0 mm
12:30 AM 33.6°F0.9°C 29.9°F-1.2°C 86% 0.3 mph SW0.5 kmh SW 0.7 mph1.1 kmh 30.67 in1038.6 mb 0.00 in0.0 mm 0.00 in0.0 mm 0.00 in0.0 mm
12:20 AM 34.0°F1.1°C 30.2°F-1.0°C 86% 0.8 mph SE1.3 kmh SE 1.6 mph2.6 kmh 30.66 in1038.3 mb 0.00 in0.0 mm 0.00 in0.0 mm 0.00 in0.0 mm
12:10 AM 33.3°F0.7°C 29.5°F-1.4°C 86% 0.2 mph SE0.3 kmh SE 0.7 mph1.1 kmh 30.65 in1037.9 mb 0.00 in0.0 mm 0.00 in0.0 mm 0.00 in0.0 mm
12:00 AM 32.7°F0.4°C 28.7°F-1.8°C 85% Calm Calm -- 30.66 in1038.3 mb 0.00 in0.0 mm 0.00 in0.0 mm 0.00 in0.0 mm